Flight Track Log - Related Links

Times and Time Zones

All times are in EDT time to prevent confusion due to time zone crossing. See the XOJ549 flight status page for this flight to view local times or setup timezone preferences in your user account.

Time Position Orientation Groundspeed Altitude Reporting Facility
EDT Latitude Longitude Course Direction KTS MPH feet Rate Location/Type
Sat 03:43:04 PM 36.5919 -121.7558 112° Southeast 236 272 13,900  Level Oakland Center
Sat 03:44:06 PM 36.5264 -121.6719 134° Southeast 274 315 17,700 3,171 Climbing Oakland Center
Sat 03:45:00 PM 36.3141 -121.4408 122° Southeast  Level Estimated
Sat 03:45:07 PM 36.4622 -121.5889 134° Southeast 323 372 20,400  Level Oakland Center
Sat 03:46:00 PM 36.2594 -121.3607 136° Southeast  Level Estimated
Sat 03:46:08 PM 36.3942 -121.5000 134° Southeast 348 400 23,600  Level Oakland Center
Sat 03:47:10 PM 36.3239 -121.4086 134° Southeast 360 414 26,500 2,683 Climbing Oakland Center
Sat 03:48:11 PM 36.2514 -121.3169 134° Southeast 369 425 29,100 2,213 Climbing Oakland Center
Sat 03:49:12 PM 36.1744 -121.2183 134° Southeast 389 448 31,000 927 Climbing Oakland Center
Sat 03:50:14 PM 36.0889 -121.1075 134° Southeast 428 493 31,000  Level Oakland Center
Sat 03:51:15 PM 36.0003 -120.9972 135° Southeast 448 516 31,000  Level Oakland Center
Sat 03:52:16 PM 35.9144 -120.8872 134° Southeast 446 513 31,000  Level Oakland Center
Sat 03:53:18 PM 35.8114 -120.7564 134° Southeast 443 510 31,000 -49 Level Oakland Center
Sat 03:54:19 PM 35.7244 -120.6475 135° Southeast 445 512 30,900  Descending Oakland Center
Sat 03:55:20 PM 35.6372 -120.5392 135° Southeast 445 512 31,000 49 Climbing Oakland Center
Sat 03:56:22 PM 35.5517 -120.4314 134° Southeast 438 504 31,000  Level Oakland Center
Sat 03:57:30 PM 35.4594 -120.3203 136° Southeast 448 516 31,000  Level Los Angeles Center
Sat 03:58:32 PM 35.3733 -120.2083 133° Southeast 450 518 31,000  Level Los Angeles Center
Sat 03:59:34 PM 35.2808 -120.0944 135° Southeast 447 514 31,000 -48 Level Los Angeles Center
Sat 04:00:36 PM 35.1756 -119.9658 135° Southeast 446 513 30,900 -1,113 Descending Los Angeles Center
Sat 04:01:38 PM 35.0872 -119.8572 135° Southeast 449 517 28,700 -2,129 Descending Los Angeles Center
Sat 04:02:40 PM 35.0078 -119.7500 132° Southeast 430 495 26,500 -2,129 Descending Los Angeles Center
Sat 04:03:42 PM 34.9322 -119.6475 132° Southeast 410 472 24,300 -2,129 Descending Los Angeles Center
Sat 04:04:44 PM 34.8589 -119.5492 132° Southeast 395 455 22,100 -2,129 Descending Los Angeles Center
Sat 04:05:46 PM 34.7894 -119.4542 132° Southeast 379 436 19,900 -2,419 Descending Los Angeles Center
Sat 04:06:48 PM 34.7086 -119.3464 132° Southeast 361 415 17,100 -2,226 Descending Los Angeles Center
Sat 04:07:50 PM 34.6444 -119.2592 132° Southeast 349 402 15,300 -1,548 Descending Los Angeles Center
Sat 04:08:52 PM 34.5853 -119.1875 135° Southeast 334 384 13,900 -1,467 Descending Los Angeles Center
Sat 04:10:05 PM 34.5081 -119.0828 132° Southeast 356 410 12,000 -1,279 Descending Los Angeles Center
Sat 04:11:08 PM 34.4308 -118.9814 133° Southeast 328 377 11,000 -1,056 Descending Los Angeles Center
Sat 04:12:10 PM 34.4147 -118.8906 102° East 295 339 9,800 -1,597 Descending Los Angeles Center
Sat 04:13:12 PM 34.4072 -118.7908 95° East 298 343 7,700 -1,984 Descending Los Angeles Center
Sat 04:14:14 PM 34.3928 -118.6953 100° East 287 330 5,700 -1,122 Descending Los Angeles Center
Sat 04:15:15 PM 34.3606 -118.6150 116° Southeast 266 306 5,400 -683 Descending Los Angeles Center
Sat 04:16:17 PM 34.3125 -118.5442 129° Southeast 267 307 4,300 -1,548 Descending Los Angeles Center
Sat 04:17:19 PM 34.2589 -118.4956 143° Southeast 230 265 2,200 -1,129 Descending Los Angeles Center
Sat 04:19:23 PM 34.1814 -118.4972 181° South 192 221 800 -677 Descending Los Angeles Center
Sat 04:21:00 PM 34.2000 -118.4833 North  Level FlightAware Approximate

Login

Don't have an account? Register now (free) for customized features, flight alerts, and more!